createdAt,value
2023-05-15T00:00:44.613Z,95036.00
2023-05-15T00:03:47.754Z,95015.63
2023-05-15T00:06:53.416Z,95003.56
2023-05-15T00:09:56.493Z,95012.03
2023-05-15T00:12:59.536Z,94996.69
2023-05-15T00:16:02.582Z,94979.75
2023-05-15T00:19:05.765Z,95004.66
2023-05-15T00:22:10.322Z,95022.53
2023-05-15T00:25:13.345Z,95021.56
2023-05-15T00:28:16.508Z,95034.56
2023-05-15T00:31:19.750Z,95039.28
2023-05-15T00:34:23.010Z,95032.22
2023-05-15T00:37:27.567Z,95039.72
2023-05-15T00:40:31.440Z,95044.25
2023-05-15T00:43:35.023Z,95030.16
2023-05-15T00:46:39.615Z,95022.94
2023-05-15T00:49:44.579Z,95021.19
2023-05-15T00:52:49.904Z,95031.53
2023-05-15T00:55:53.636Z,95036.38
2023-05-15T00:58:59.811Z,95041.50
2023-05-15T01:02:02.932Z,95041.69
2023-05-15T01:05:07.563Z,95047.00
2023-05-15T01:08:22.728Z,95040.91
2023-05-15T01:11:35.689Z,95035.69
2023-05-15T01:14:38.843Z,95011.56
2023-05-15T01:17:42.191Z,95025.84
2023-05-15T01:21:03.244Z,95018.63
2023-05-15T01:24:28.463Z,95024.25
2023-05-15T01:27:37.897Z,95014.72
2023-05-15T01:30:44.282Z,95018.47
2023-05-15T01:33:52.445Z,95013.13
2023-05-15T01:37:01.358Z,95005.47
2023-05-15T01:40:07.945Z,95002.78
2023-05-15T01:43:16.708Z,95004.66
2023-05-15T01:46:23.281Z,94984.00
2023-05-15T01:49:29.621Z,94988.00
2023-05-15T01:52:36.330Z,94977.66
2023-05-15T01:55:41.357Z,94983.78
2023-05-15T01:58:46.456Z,94983.47
2023-05-15T02:01:51.143Z,94971.25
2023-05-15T02:04:55.111Z,94986.56
2023-05-15T02:07:58.388Z,95000.34
2023-05-15T02:11:04.024Z,95008.03
2023-05-15T02:14:10.102Z,95000.06
2023-05-15T02:17:13.356Z,95014.44
2023-05-15T02:20:16.545Z,95007.38
2023-05-15T02:23:20.626Z,94990.94
2023-05-15T02:26:32.872Z,94998.13
2023-05-15T02:29:48.737Z,94984.81
2023-05-15T02:33:01.020Z,94967.28
2023-05-15T02:36:08.187Z,94974.97
2023-05-15T02:39:12.985Z,94968.38
2023-05-15T02:42:16.947Z,94961.16
2023-05-15T02:45:23.580Z,94961.16
2023-05-15T02:48:27.898Z,94973.22
2023-05-15T02:51:31.287Z,94972.13
2023-05-15T02:54:34.447Z,94988.66
2023-05-15T02:57:37.678Z,94981.66
2023-05-15T03:00:42.285Z,94978.22
2023-05-15T03:03:45.409Z,94960.47
2023-05-15T03:06:48.689Z,94968.47
2023-05-15T03:09:51.807Z,94974.56
2023-05-15T03:12:58.579Z,94977.84
2023-05-15T03:16:03.133Z,94983.94
2023-05-15T03:19:06.396Z,94993.50
2023-05-15T03:22:09.545Z,94992.06
2023-05-15T03:25:12.875Z,94998.94
2023-05-15T03:28:16.149Z,94987.50
2023-05-15T03:31:20.939Z,94990.34
2023-05-15T03:34:24.146Z,94978.63
2023-05-15T03:37:27.265Z,94970.94
2023-05-15T03:40:30.818Z,94982.06
2023-05-15T03:43:33.976Z,94981.28
2023-05-15T03:46:38.602Z,94967.97
2023-05-15T03:49:41.746Z,94964.84
2023-05-15T03:52:44.966Z,94986.31
2023-05-15T03:55:48.406Z,94970.16
2023-05-15T03:58:51.535Z,94990.84
2023-05-15T04:05:07.018Z,94983.94
2023-05-15T04:08:11.115Z,94972.13
2023-05-15T04:11:14.434Z,94981.47
2023-05-15T04:14:17.546Z,94970.16
2023-05-15T04:17:22.044Z,94976.69
2023-05-15T04:20:26.206Z,94998.81
2023-05-15T04:23:29.303Z,95009.88
2023-05-15T04:26:32.454Z,95008.50
2023-05-15T04:29:35.530Z,94998.25
2023-05-15T04:32:40.325Z,94994.31
2023-05-15T04:35:43.621Z,94999.03
2023-05-15T04:38:46.730Z,94984.25
2023-05-15T04:41:49.969Z,95001.41
2023-05-15T04:44:53.087Z,94995.88
2023-05-15T04:47:57.535Z,94979.41
2023-05-15T04:51:00.748Z,94982.84
2023-05-15T04:54:04.711Z,94966.72
2023-05-15T04:57:07.861Z,94981.50
2023-05-15T05:00:12.561Z,94982.28
2023-05-15T05:03:17.191Z,94974.59
2023-05-15T05:06:20.247Z,94969.84
2023-05-15T05:09:23.359Z,94972.53
2023-05-15T05:12:28.059Z,94962.97
2023-05-15T05:18:35.558Z,94948.09
2023-05-15T05:21:38.728Z,94957.94
2023-05-15T05:24:41.823Z,94951.25
2023-05-15T05:27:44.940Z,94950.75
2023-05-15T05:33:52.916Z,94949.97
2023-05-15T05:36:56.044Z,94964.06
2023-05-15T05:39:59.034Z,94960.59
2023-05-15T05:49:09.464Z,94964.06
2023-05-15T05:52:13.038Z,94966.13
2023-05-15T05:55:16.260Z,94964.25
2023-05-15T05:58:25.481Z,94955.00
2023-05-15T06:01:29.375Z,94965.63
2023-05-15T06:04:34.575Z,94958.44
2023-05-15T06:07:37.816Z,94969.06
2023-05-15T06:10:42.573Z,94968.28
2023-05-15T06:13:45.674Z,94969.38
2023-05-15T06:16:48.832Z,94973.91
2023-05-15T06:19:53.284Z,94972.81
2023-05-15T06:22:56.645Z,94973.44
2023-05-15T06:25:59.779Z,94962.00
2023-05-15T06:29:02.809Z,94957.94
2023-05-15T06:32:06.696Z,94934.66
2023-05-15T06:35:12.044Z,94967.50
2023-05-15T06:38:15.232Z,94972.03
2023-05-15T06:41:18.305Z,94964.84
2023-05-15T06:44:22.591Z,94971.25
2023-05-15T06:47:26.739Z,94981.88
2023-05-15T06:50:31.310Z,94978.75
2023-05-15T06:53:34.626Z,94976.69
2023-05-15T06:56:37.838Z,94981.41
2023-05-15T06:59:40.967Z,94975.59
2023-05-15T07:02:44.438Z,94982.97
2023-05-15T07:05:49.097Z,94977.19
2023-05-15T07:08:52.171Z,94995.19
2023-05-15T07:11:55.180Z,94988.31
2023-05-15T07:14:58.330Z,94976.97
2023-05-15T07:18:01.555Z,94971.84
2023-05-15T07:21:06.654Z,94957.75
2023-05-15T07:24:09.941Z,94962.41
2023-05-15T07:27:12.987Z,94961.22
2023-05-15T07:30:16.757Z,94972.63
2023-05-15T07:33:20.046Z,94964.97
2023-05-15T07:36:24.566Z,94972.44
2023-05-15T07:39:27.666Z,94979.34
2023-05-15T07:42:30.877Z,94976.69
2023-05-15T07:45:34.058Z,94967.09
2023-05-15T07:48:37.176Z,94969.78
2023-05-15T07:51:42.848Z,94969.28
2023-05-15T07:54:45.975Z,94973.03
2023-05-15T07:57:53.546Z,94968.50
2023-05-15T08:00:56.979Z,94974.09
2023-05-15T08:04:00.565Z,94989.28
2023-05-15T08:07:05.746Z,94992.72
2023-05-15T08:10:09.853Z,94983.69
2023-05-15T08:13:12.949Z,94984.56
2023-05-15T08:16:16.082Z,94996.69
2023-05-15T08:19:19.475Z,94994.00
2023-05-15T08:22:24.118Z,94987.91
2023-05-15T08:25:27.500Z,94992.13
2023-05-15T08:28:30.988Z,94987.59
2023-05-15T08:31:34.147Z,94978.06
2023-05-15T08:34:37.351Z,94975.09
2023-05-15T08:37:42.038Z,94975.38
2023-05-15T08:40:48.363Z,94962.47
2023-05-15T08:43:54.475Z,94973.53
2023-05-15T08:46:59.677Z,94968.19
2023-05-15T08:50:08.315Z,94973.53
2023-05-15T08:53:14.017Z,94958.13
2023-05-15T08:56:17.699Z,94966.63
2023-05-15T08:59:21.417Z,94960.78
2023-05-15T09:02:26.455Z,94953.91
2023-05-15T09:05:37.381Z,94950.66
2023-05-15T09:08:45.462Z,94955.47
2023-05-15T09:11:50.025Z,94955.78
2023-05-15T09:14:53.584Z,94963.44
2023-05-15T09:17:57.451Z,94971.44
2023-05-15T09:21:23.426Z,94957.66
2023-05-15T09:24:29.313Z,94934.19
2023-05-15T09:27:41.905Z,94939.50
2023-05-15T09:30:45.086Z,94936.84
2023-05-15T09:33:48.207Z,94922.75
2023-05-15T09:36:51.602Z,94921.97
2023-05-15T09:39:56.379Z,94925.41
2023-05-15T09:42:59.912Z,94920.22
2023-05-15T09:46:03.258Z,94915.88
2023-05-15T09:49:06.830Z,94902.09
2023-05-15T09:52:10.880Z,94892.41
2023-05-15T09:55:19.636Z,94887.91
2023-05-15T09:58:23.555Z,94887.91
2023-05-15T10:01:27.649Z,94889.75
2023-05-15T10:04:36.917Z,94888.50
2023-05-15T10:07:40.152Z,94895.38
2023-05-15T10:10:46.579Z,94877.97
2023-05-15T10:13:50.104Z,94874.72
2023-05-15T10:16:54.500Z,94878.75
2023-05-15T10:20:00.048Z,94885.03
2023-05-15T10:23:05.670Z,94886.91
2023-05-15T10:26:17.303Z,94901.78
2023-05-15T10:29:24.249Z,94897.06
2023-05-15T10:32:27.905Z,94913.50
2023-05-15T10:35:32.008Z,94914.59
2023-05-15T10:38:37.255Z,94908.81
2023-05-15T10:41:41.924Z,94920.22
2023-05-15T10:44:45.019Z,94923.69
2023-05-15T10:47:48.982Z,94914.13
2023-05-15T10:50:52.674Z,94914.72
2023-05-15T10:53:57.779Z,94929.28
2023-05-15T10:57:02.458Z,94923.19
2023-05-15T11:00:31.421Z,94920.53
2023-05-15T11:03:48.820Z,94932.25
2023-05-15T11:07:13.574Z,94928.81
2023-05-15T11:10:38.576Z,94916.59
2023-05-15T11:14:15.538Z,94909.22
2023-05-15T11:17:19.375Z,94931.78
2023-05-15T11:20:35.170Z,94911.69
2023-05-15T11:23:41.392Z,94906.09
2023-05-15T11:26:44.564Z,94913.28
2023-05-15T11:30:15.394Z,94905.31
2023-05-15T11:33:18.540Z,94907.19
2023-05-15T11:36:25.383Z,94913.56
2023-05-15T11:39:29.369Z,94908.34
2023-05-15T11:42:33.518Z,94901.66
2023-05-15T11:45:39.670Z,94898.81
2023-05-15T11:48:44.410Z,94898.69
2023-05-15T11:51:49.910Z,94872.09
2023-05-15T11:54:53.896Z,94851.44
2023-05-15T11:57:57.015Z,94885.59
2023-05-15T12:01:01.572Z,94892.50
2023-05-15T12:04:13.710Z,94878.72
2023-05-15T12:07:17.238Z,94863.03
2023-05-15T12:10:20.418Z,94859.78
2023-05-15T12:13:23.558Z,94869.66
2023-05-15T12:16:28.816Z,94866.97
2023-05-15T12:19:32.133Z,94859.00
2023-05-15T12:22:38.193Z,94848.16
2023-05-15T12:25:41.568Z,94848.94
2023-05-15T12:28:45.530Z,94853.16
2023-05-15T12:31:54.227Z,94828.19
2023-05-15T12:34:58.167Z,94803.25
2023-05-15T12:38:01.490Z,94822.84
2023-05-15T12:41:04.722Z,94805.81
2023-05-15T12:44:07.986Z,94800.81
2023-05-15T12:47:15.731Z,94783.75
2023-05-15T12:50:20.422Z,94780.31
2023-05-15T12:53:23.565Z,94767.00
2023-05-15T12:56:26.768Z,94781.09
2023-05-15T12:59:31.079Z,94785.63
2023-05-15T13:02:35.869Z,94793.59
2023-05-15T13:05:40.246Z,94791.72
2023-05-15T13:08:45.140Z,94787.50
2023-05-15T13:11:48.946Z,94793.09
2023-05-15T13:14:51.997Z,94795.19
2023-05-15T13:18:00.992Z,94792.81
2023-05-15T13:21:04.208Z,94791.72
2023-05-15T13:24:10.065Z,94781.88
2023-05-15T13:27:13.206Z,94784.53
2023-05-15T13:30:17.440Z,94787.19
2023-05-15T13:33:21.958Z,94794.09
2023-05-15T13:36:25.072Z,94796.75
2023-05-15T13:39:28.225Z,94795.97
2023-05-15T13:42:31.326Z,94796.75
2023-05-15T13:45:34.629Z,94804.25
2023-05-15T13:48:39.149Z,94798.31
2023-05-15T13:51:42.388Z,94795.97
2023-05-15T13:54:45.563Z,94800.97
2023-05-15T13:57:48.707Z,94791.84
2023-05-15T14:00:51.862Z,94798.31
2023-05-15T14:03:56.907Z,94807.38
2023-05-15T14:07:00.072Z,94802.84
2023-05-15T14:10:03.772Z,94804.72
2023-05-15T14:13:06.985Z,94801.28
2023-05-15T14:16:10.260Z,94800.50
2023-05-15T14:19:14.911Z,94798.94
2023-05-15T14:22:18.013Z,94793.28
2023-05-15T14:25:21.190Z,94791.44
2023-05-15T14:28:24.408Z,94791.22
2023-05-15T14:31:27.609Z,94789.84
2023-05-15T14:34:32.569Z,94794.09
2023-05-15T14:37:35.766Z,94796.75
2023-05-15T14:40:39.011Z,94789.84
2023-05-15T14:43:42.233Z,94781.69
2023-05-15T14:46:45.587Z,94784.53
2023-05-15T14:49:50.214Z,94775.00
2023-05-15T14:52:53.340Z,94767.78
2023-05-15T14:55:58.589Z,94752.56
2023-05-15T14:59:01.708Z,94757.56
2023-05-15T15:02:04.989Z,94771.81
2023-05-15T15:05:10.798Z,94760.09
2023-05-15T15:08:14.037Z,94757.88
2023-05-15T15:11:17.239Z,94762.41
2023-05-15T15:14:20.372Z,94757.06
2023-05-15T15:17:23.728Z,94752.31
2023-05-15T15:20:29.218Z,94760.59
2023-05-15T15:23:32.329Z,94759.28
2023-05-15T15:26:35.522Z,94744.34
2023-05-15T15:29:38.583Z,94739.59
2023-05-15T15:32:42.368Z,94735.47
2023-05-15T15:35:47.140Z,94736.84
2023-05-15T15:38:50.185Z,94749.38
2023-05-15T15:41:54.523Z,94740.84
2023-05-15T15:44:57.886Z,94735.94
2023-05-15T15:48:01.117Z,94749.97
2023-05-15T15:51:06.665Z,94743.75
2023-05-15T15:54:09.732Z,94744.25
2023-05-15T15:57:13.114Z,94748.63
2023-05-15T16:00:17.489Z,94744.88
2023-05-15T16:03:20.810Z,94751.47
2023-05-15T16:06:25.520Z,94753.34
2023-05-15T16:09:28.541Z,94754.59
2023-05-15T16:12:34.032Z,94750.69
2023-05-15T16:15:37.185Z,94760.22
2023-05-15T16:18:40.350Z,94740.81
2023-05-15T16:21:45.166Z,94756.47
2023-05-15T16:24:48.468Z,94764.75
2023-05-15T16:27:51.739Z,94782.75
2023-05-15T16:30:56.549Z,94771.94
2023-05-15T16:34:03.529Z,94765.25
2023-05-15T16:37:08.533Z,94756.00
2023-05-15T16:40:12.472Z,94772.44
2023-05-15T16:43:15.690Z,94778.38
2023-05-15T16:46:19.055Z,94786.03
2023-05-15T16:49:22.267Z,94789.47
2023-05-15T16:52:26.956Z,94779.63
2023-05-15T16:55:30.912Z,94782.47
2023-05-15T16:58:34.048Z,94773.91
2023-05-15T17:01:37.226Z,94775.78
2023-05-15T17:04:40.619Z,94784.22
2023-05-15T17:07:45.542Z,94783.63
2023-05-15T17:10:48.687Z,94795.69
2023-05-15T17:13:51.873Z,94795.88
2023-05-15T17:16:55.204Z,94782.09
2023-05-15T17:19:59.340Z,94787.59
2023-05-15T17:23:05.034Z,94788.19
2023-05-15T17:26:08.256Z,94791.94
2023-05-15T17:29:11.648Z,94799.63
2023-05-15T17:32:15.932Z,94813.22
2023-05-15T17:35:19.323Z,94808.50
2023-05-15T17:38:23.820Z,94816.97
2023-05-15T17:41:27.100Z,94811.16
2023-05-15T17:44:31.228Z,94819.63
2023-05-15T17:47:34.422Z,94820.41
2023-05-15T17:50:39.141Z,94818.84
2023-05-15T17:53:43.852Z,94821.19
2023-05-15T17:59:49.974Z,94845.13
2023-05-15T18:02:53.208Z,94854.38
2023-05-15T18:05:56.504Z,94832.31
2023-05-15T18:09:01.233Z,94811.53
2023-05-15T18:12:04.424Z,94844.34
2023-05-15T18:15:08.451Z,94846.53
2023-05-15T18:18:11.671Z,94784.41
2023-05-15T18:21:15.398Z,94766.56
2023-05-15T18:24:19.886Z,94815.72
2023-05-15T18:27:22.981Z,94850.47
2023-05-15T18:30:26.090Z,94847.00
2023-05-15T18:33:29.330Z,94832.44
2023-05-15T18:36:32.417Z,94835.13
2023-05-15T18:39:38.025Z,94833.69
2023-05-15T18:42:41.110Z,94845.59
2023-05-15T18:45:44.172Z,94846.09
2023-05-15T18:48:47.326Z,94826.16
2023-05-15T18:51:50.423Z,94835.63
2023-05-15T18:54:55.154Z,94834.13
2023-05-15T18:57:58.303Z,94844.38
2023-05-15T19:01:01.548Z,94842.28
2023-05-15T19:04:04.944Z,94851.44
2023-05-15T19:07:08.898Z,94857.25
2023-05-15T19:10:13.578Z,94846.88
2023-05-15T19:13:16.749Z,94847.47
2023-05-15T19:16:20.060Z,94853.81
2023-05-15T19:19:23.314Z,94849.34
2023-05-15T19:22:26.605Z,94849.81
2023-05-15T19:25:31.206Z,94849.34
2023-05-15T19:28:34.544Z,94854.91
2023-05-15T19:31:38.807Z,94857.25
2023-05-15T19:34:42.011Z,94866.56
2023-05-15T19:37:45.341Z,94873.34
2023-05-15T19:40:49.789Z,94863.31
2023-05-15T19:43:52.937Z,94870.94
2023-05-15T19:46:56.042Z,94864.03
2023-05-15T19:49:59.209Z,94875.00
2023-05-15T19:53:02.345Z,94869.63
2023-05-15T19:56:07.453Z,94869.91
2023-05-15T19:59:10.757Z,94864.09
2023-05-15T20:02:13.837Z,94873.16
2023-05-15T20:05:17.038Z,94870.47
2023-05-15T20:08:20.250Z,94871.38
2023-05-15T20:11:24.962Z,94862.59
2023-05-15T20:14:28.028Z,94863.50
2023-05-15T20:17:31.041Z,94858.75
2023-05-15T20:20:34.088Z,94835.06
2023-05-15T20:23:37.140Z,94840.72
2023-05-15T20:26:41.906Z,94852.25
2023-05-15T20:29:45.577Z,94852.56
2023-05-15T20:32:48.738Z,94838.63
2023-05-15T20:35:53.343Z,94838.63
2023-05-15T20:38:56.821Z,94838.75
2023-05-15T20:42:01.645Z,94826.50
2023-05-15T20:45:05.321Z,94807.56
2023-05-15T20:48:09.012Z,94816.31
2023-05-15T20:51:12.141Z,94823.03
2023-05-15T20:54:15.282Z,94805.66
2023-05-15T20:57:19.753Z,94799.22
2023-05-15T21:00:22.942Z,94802.78
2023-05-15T21:03:26.124Z,94793.91
2023-05-15T21:06:29.335Z,94795.28
2023-05-15T21:09:32.617Z,94801.41
2023-05-15T21:12:37.244Z,94788.91
2023-05-15T21:15:40.318Z,94802.47
2023-05-15T21:18:43.541Z,94798.25
2023-05-15T21:21:46.790Z,94797.31
2023-05-15T21:24:49.834Z,94795.72
2023-05-15T21:27:54.334Z,94800.56
2023-05-15T21:30:57.389Z,94789.59
2023-05-15T21:34:00.556Z,94775.16
2023-05-15T21:37:03.857Z,94803.06
2023-05-15T21:40:07.982Z,94798.06
2023-05-15T21:43:12.542Z,94805.84
2023-05-15T21:46:15.652Z,94797.88
2023-05-15T21:49:18.692Z,94793.63
2023-05-15T21:52:21.826Z,94794.72
2023-05-15T21:55:24.867Z,94797.69
2023-05-15T21:58:30.261Z,94795.03
2023-05-15T22:01:33.542Z,94789.22
2023-05-15T22:04:36.919Z,94798.91
2023-05-15T22:07:40.290Z,94790.94
2023-05-15T22:10:43.675Z,94792.50
2023-05-15T22:13:48.160Z,94783.44
2023-05-15T22:16:51.291Z,94796.25
2023-05-15T22:19:54.599Z,94803.16
2023-05-15T22:23:01.012Z,94793.13
2023-05-15T22:26:04.251Z,94803.16
2023-05-15T22:29:09.038Z,94802.38
2023-05-15T22:32:12.195Z,94805.50
2023-05-15T22:35:15.278Z,94794.97
2023-05-15T22:38:18.364Z,94786.72
2023-05-15T22:41:21.763Z,94794.28
2023-05-15T22:44:26.297Z,94787.59
2023-05-15T22:47:29.437Z,94787.28
2023-05-15T22:50:32.754Z,94797.47
2023-05-15T22:53:35.960Z,94794.50
2023-05-15T22:56:39.022Z,94786.81
2023-05-15T22:59:43.447Z,94791.31
2023-05-15T23:02:46.516Z,94786.31
2023-05-15T23:05:49.782Z,94780.69
2023-05-15T23:08:52.978Z,94790.84
2023-05-15T23:11:55.990Z,94790.53
2023-05-15T23:15:00.707Z,94774.56
2023-05-15T23:18:03.775Z,94786.31
2023-05-15T23:21:06.823Z,94785.06
2023-05-15T23:24:09.947Z,94768.00
2023-05-15T23:27:14.372Z,94764.22
2023-05-15T23:30:19.381Z,94768.44
2023-05-15T23:33:22.697Z,94777.84
2023-05-15T23:36:25.867Z,94778.94
2023-05-15T23:39:28.917Z,94772.53
2023-05-15T23:42:32.053Z,94772.66
2023-05-15T23:45:36.614Z,94751.84
2023-05-15T23:48:39.703Z,94768.91
2023-05-15T23:51:43.905Z,94767.03
2023-05-15T23:54:46.883Z,94754.06
2023-05-15T23:57:50.170Z,94718.59
